• Join FlightAware (Why Join?)
  • Login
  • US Flag 
11:19PM EDT


 

Airport Tracker/Info


-or-


 

Live Flight TrackerFlight Track Log ✈ CTL16 ✈ 16-Apr-2013 ✈ KHAO - KBKL

Flight Track Log - Related Links

Times and Time Zones

All times are in EDT time to prevent confusion due to time zone crossing. See the CTL16 flight status page for this flight to view local times or setup timezone preferences in your user account.

Time Position Orientation Groundspeed Altitude Reporting Facility
EDT Latitude Longitude Course Direction KTS MPH feet Rate Location/Type
08:26PM 39.3667 -84.5500 322° Northwest 110 127 1,300  Level Cincinnati TRACON
08:27PM 39.3833 -84.5667 322° Northwest 121 139 1,900 780 Climbing Cincinnati TRACON
08:28PM 39.4061 -84.5317 50° Northeast 176 203 2,500 540 Climbing Indianapolis Center
08:28PM 39.4200 -84.5108 49° Northeast 174 200 2,700 480 Climbing Indianapolis Center
08:29PM 39.4367 -84.4864 49° Northeast 166 191 3,000 600 Climbing Indianapolis Center
08:29PM 39.4511 -84.4636 51° Northeast 178 205 3,300 480 Climbing Indianapolis Center
08:30PM 39.4692 -84.4375 48° Northeast 172 198 3,500 420 Climbing Indianapolis Center
08:30PM 39.4819 -84.4217 44° Northeast 176 203 3,700 480 Climbing Indianapolis Center
08:31PM 39.5033 -84.3911 48° Northeast 174 200 4,000 300 Climbing Indianapolis Center
08:31PM 39.5172 -84.3750 42° Northeast 179 206 4,000  Level Indianapolis Center
08:32PM 39.5408 -84.3428 46° Northeast 181 208 4,000  Level Indianapolis Center
08:33PM 39.5808 -84.2947 43° Northeast 188 216 4,000  Level Indianapolis Center
08:34PM 39.6217 -84.2456 43° Northeast 193 222 4,100  Climbing Indianapolis Center
08:35PM 39.6594 -84.1981 44° Northeast 192 221 4,100 -60 Level Indianapolis Center
08:36PM 39.6981 -84.1467 46° Northeast 194 223 4,000 -60 Descending Indianapolis Center
08:37PM 39.7367 -84.0942 46° Northeast 197 227 4,000  Level Indianapolis Center
08:38PM 39.7750 -84.0433 46° Northeast 196 226 4,000  Level Indianapolis Center
08:39PM 39.8122 -83.9922 47° Northeast 194 223 4,000  Level Indianapolis Center
08:40PM 39.8481 -83.9414 47° Northeast 191 220 4,100  Climbing Indianapolis Center
08:41PM 39.8889 -83.8814 48° Northeast 192 221 4,000 180 Descending Indianapolis Center
08:42PM 39.9283 -83.8319 44° Northeast 179 206 4,500 420 Climbing Indianapolis Center
08:43PM 39.9564 -83.7936 46° Northeast 184 212 4,900 240 Climbing Indianapolis Center
08:44PM 39.9925 -83.7447 46° Northeast 184 212 5,000  Climbing Indianapolis Center
08:45PM 40.0294 -83.6928 47° Northeast 188 216 5,000  Level Indianapolis Center
08:46PM 40.0697 -83.6422 44° Northeast 194 223 5,000  Level Indianapolis Center
08:47PM 40.1128 -83.5744 50° Northeast 202 232 5,000  Level Indianapolis Center
08:48PM 40.1467 -83.5306 45° Northeast 204 235 5,000  Level Indianapolis Center
08:49PM 40.1869 -83.4783 45° Northeast 202 232 5,100  Climbing Indianapolis Center
08:50PM 40.2322 -83.4144 47° Northeast 204 235 5,000  Descending Indianapolis Center
08:51PM 40.2450 -83.3969 46° Northeast 201 231 5,100  Climbing Indianapolis Center
08:51PM 40.2706 -83.3603 48° Northeast 201 231 5,000 -60 Descending Indianapolis Center
08:52PM 40.3072 -83.3061 48° Northeast 198 228 5,000  Level Indianapolis Center
08:53PM 40.3447 -83.2522 48° Northeast 198 228 5,000  Level Indianapolis Center
08:54PM 40.3850 -83.1986 45° Northeast 203 234 5,000 -60 Level Indianapolis Center
08:55PM 40.4219 -83.1444 48° Northeast 198 228 4,900  Descending Indianapolis Center
08:56PM 40.4600 -83.0922 46° Northeast 197 227 5,000  Climbing Indianapolis Center
08:57PM 40.4961 -83.0381 49° Northeast 196 226 5,000  Level Indianapolis Center
08:58PM 40.5333 -82.9897 45° Northeast 193 222 5,000  Level Indianapolis Center
08:59PM 40.5722 -82.9406 44° Northeast 192 221 5,000 -60 Level Indianapolis Center
09:00PM 40.6094 -82.8897 46° Northeast 192 221 4,900  Descending Indianapolis Center
09:01PM 40.6392 -82.8289 57° Northeast 195 224 5,000  Climbing Indianapolis Center
09:02PM 40.6675 -82.7669 59° Northeast 196 226 5,000  Level Indianapolis Center
09:03PM 40.6964 -82.7058 58° Northeast 195 224 5,000  Level Indianapolis Center
09:05PM 40.7242 -82.6439 59° Northeast 194 223 5,000  Level Indianapolis Center
09:06PM 40.7539 -82.5819 58° Northeast 197 227 5,000  Level Indianapolis Center